ENG ESP
Escola de Pilots
Telèfon 972234126 972 23 41 26
 
Aerbrava - meteorologia

Informació meteorològica aeronàutica

 

En aquest apartat apareix la informació meteorològica aeronàutica que és utilitzada a les pràctiques dels alumnes de l’Escola de Pilots del nostre centre durant la seva formació, pel que pot no ser actual i s’hauria d’utilitzar pel seu propi compte i risc. AERBRAVA no es fa responsable del seu ús.

 

TEMPS ACTUAL

Satèl·lit Meteorològic

sat24.com

Servei Meteorològic de Catalunya

 

LEGE 291900Z 19011KT CAVOK 26/17 Q1011
LEGE 291830Z 17010KT 140V200 9999 FEW060 27/16 Q1011
LEGE 291800Z 17009KT 120V200 9999 FEW060 28/17 Q1011
LEGE 291730Z 18013KT 9999 FEW060 28/17 Q1011
LEGE 291700Z 19015KT 9999 FEW060 29/18 Q1011
LEGE 291630Z 19016KT 160V220 9999 FEW060 29/18 Q1011
LEGE 291600Z 18019KT 9999 FEW060 29/17 Q1012
LEGE 291530Z 19016KT 160V220 9999 FEW060 30/18 Q1012
TAF LEGE 291700Z 2918/3018 18010KT 9999 FEW020 TX34/3013Z TN19/3006Z   BECMG 2918/2921 VRB04KT   PROB30   TEMPO 2918/2924 18010KT

Aviation Weather

 
Aerbrava en el facebook Aerbrava en el twitter Aerbrava instagram Aerbrava en el youtube Aerbrava tumblr Aerbrava flikr Aerbrava pinterest

¡html Vàlid! ¡CSS Vàlid!